Time;durP1;ratioP1;P1;durP2;ratioP2;P2;SDS_P1;SDS_P2;PMS_P1;PMS_P2;Temp;Humidity;BMP_temperature;BMP_pressure;BME280_temperature;BME280_humidity;BME280_pressure;Samples;Min_cycle;Max_cycle;Signal;HPM_P1;HPM_P2
2023/06/11 00:00:04;;;;;;;4.38;3.05;;;17.10;20.70;;;;;;5087219;28;20058;-61
2023/06/11 00:02:33;;;;;;;3.63;2.63;;;17.00;21.40;;;;;;5103345;28;20125;-62
2023/06/11 00:04:59;;;;;;;4.35;3.03;;;17.00;21.90;;;;;;5087761;28;20039;-62
2023/06/11 00:07:27;;;;;;;8.40;2.50;;;17.00;22.10;;;;;;5104746;28;20054;-63
2023/06/11 00:09:53;;;;;;;4.95;2.70;;;16.90;21.60;;;;;;5086276;28;20035;-63
2023/06/11 00:12:19;;;;;;;8.05;2.75;;;16.90;21.70;;;;;;5095381;28;20036;-63
2023/06/11 00:14:44;;;;;;;3.17;2.47;;;16.90;22.30;;;;;;5094064;28;20111;-62
2023/06/11 00:17:11;;;;;;;6.03;2.63;;;16.90;22.40;;;;;;5095269;28;20040;-62
2023/06/11 00:19:36;;;;;;;2.60;2.20;;;16.80;22.70;;;;;;5089047;28;20032;-63
2023/06/11 00:22:02;;;;;;;8.95;3.20;;;16.80;22.60;;;;;;5090390;28;20039;-63
2023/06/11 00:24:28;;;;;;;4.57;2.83;;;16.80;23.00;;;;;;5110326;28;20685;-63
2023/06/11 00:26:55;;;;;;;4.07;2.20;;;16.70;22.60;;;;;;5073184;28;20067;-65
2023/06/11 00:29:20;;;;;;;6.25;2.42;;;16.70;23.10;;;;;;5110149;28;20055;-63
2023/06/11 00:31:46;;;;;;;4.60;2.40;;;16.60;22.80;;;;;;5075312;28;20038;-63
2023/06/11 00:34:12;;;;;;;3.65;2.45;;;16.60;23.50;;;;;;5096725;28;20385;-63
2023/06/11 00:36:40;;;;;;;3.60;2.33;;;16.50;23.30;;;;;;5094008;28;20040;-63
2023/06/11 00:39:05;;;;;;;6.38;2.25;;;16.50;23.40;;;;;;5102158;28;20111;-63
2023/06/11 00:41:31;;;;;;;8.98;3.20;;;16.30;23.40;;;;;;5094999;28;20119;-63
2023/06/11 00:43:57;;;;;;;6.10;2.10;;;16.30;23.80;;;;;;5096562;28;20516;-64
2023/06/11 00:46:23;;;;;;;3.42;2.20;;;16.20;23.80;;;;;;5083069;28;20032;-62
2023/06/11 00:48:50;;;;;;;16.92;2.58;;;16.10;23.90;;;;;;5109440;28;20126;-64
2023/06/11 00:51:17;;;;;;;3.55;2.38;;;16.10;25.00;;;;;;5099735;28;20110;-64
2023/06/11 00:53:43;;;;;;;5.57;2.08;;;16.00;25.30;;;;;;5090428;28;20082;-63
2023/06/11 00:56:08;;;;;;;3.70;2.08;;;15.90;25.10;;;;;;5107434;28;20031;-62
2023/06/11 00:58:34;;;;;;;2.53;1.85;;;15.80;26.10;;;;;;5089635;28;20040;-65
2023/06/11 01:01:05;;;;;;;4.53;2.10;;;15.70;25.30;;;;;;5097033;28;20093;-63
2023/06/11 01:03:33;;;;;;;4.15;2.05;;;15.70;25.60;;;;;;5071458;28;20029;-63
2023/06/11 01:06:11;;;;;;;3.65;2.13;;;15.60;25.40;;;;;;5093237;28;20024;-63
2023/06/11 01:08:41;;;;;;;2.65;2.17;;;15.50;25.90;;;;;;5070710;28;20028;-63
2023/06/11 01:11:21;;;;;;;3.20;2.35;;;15.40;26.20;;;;;;5099863;28;20049;-64
2023/06/11 01:13:51;;;;;;;5.65;2.58;;;15.40;26.70;;;;;;5071746;28;20024;-63
2023/06/11 01:16:47;;;;;;;4.70;2.30;;;15.30;26.80;;;;;;5078919;28;20065;-64
2023/06/11 01:19:37;;;;;;;2.80;2.15;;;15.30;27.60;;;;;;5091840;28;20029;-64
2023/06/11 01:22:13;;;;;;;4.78;2.40;;;15.20;27.70;;;;;;5076046;28;20016;-63
2023/06/11 01:24:57;;;;;;;4.93;1.92;;;15.20;27.60;;;;;;5091926;28;20103;-63
2023/06/11 01:27:42;;;;;;;2.58;2.00;;;15.10;28.30;;;;;;5088094;28;20119;-64
2023/06/11 01:30:11;;;;;;;2.55;2.00;;;15.00;27.50;;;;;;5071364;28;20043;-62
2023/06/11 01:32:37;;;;;;;3.75;2.13;;;14.90;28.30;;;;;;5098252;28;20028;-63
2023/06/11 01:35:04;;;;;;;2.65;2.10;;;14.90;28.00;;;;;;5110025;28;20024;-63
2023/06/11 01:37:32;;;;;;;9.70;2.28;;;14.80;27.90;;;;;;5100237;28;20035;-63
2023/06/11 01:39:58;;;;;;;4.47;2.17;;;14.80;28.70;;;;;;5091607;28;20125;-63
2023/06/11 01:42:23;;;;;;;5.95;2.10;;;14.70;28.60;;;;;;5098172;28;20066;-63
2023/06/11 01:44:48;;;;;;;5.25;2.97;;;14.60;29.60;;;;;;5110966;28;20031;-63
2023/06/11 01:47:14;;;;;;;5.95;2.42;;;14.50;29.70;;;;;;5098055;28;20026;-63
2023/06/11 01:49:40;;;;;;;6.38;2.60;;;14.50;30.00;;;;;;5091790;28;20442;-63
2023/06/11 01:52:06;;;;;;;8.20;3.00;;;14.50;32.70;;;;;;5109057;28;20032;-62
2023/06/11 01:54:32;;;;;;;4.10;2.67;;;14.40;33.70;;;;;;5111581;28;20019;-63
2023/06/11 01:56:57;;;;;;;5.57;2.47;;;14.40;31.70;;;;;;5089728;28;20040;-64
2023/06/11 01:59:23;;;;;;;3.47;2.20;;;14.40;32.00;;;;;;5091159;28;20631;-63
2023/06/11 02:01:52;;;;;;;4.63;2.38;;;14.30;32.00;;;;;;5108840;28;20027;-64
2023/06/11 02:04:21;;;;;;;6.10;2.70;;;14.30;32.90;;;;;;5111531;27;20103;-64
2023/06/11 02:06:48;;;;;;;4.07;2.47;;;14.20;32.40;;;;;;5084284;28;20035;-63
2023/06/11 02:09:14;;;;;;;6.40;2.50;;;14.20;34.50;;;;;;5090847;28;20483;-64
2023/06/11 02:11:40;;;;;;;5.82;2.80;;;14.20;33.50;;;;;;5108741;28;20030;-63
2023/06/11 02:14:05;;;;;;;3.25;2.38;;;14.10;34.10;;;;;;5111420;28;20016;-63
2023/06/11 02:16:31;;;;;;;3.45;2.42;;;14.10;35.40;;;;;;5091667;28;20535;-63
2023/06/11 02:18:56;;;;;;;4.57;2.70;;;14.10;34.00;;;;;;5111204;28;20134;-63
2023/06/11 02:21:22;;;;;;;2.58;2.00;;;14.00;33.80;;;;;;5090337;28;20475;-63
2023/06/11 02:23:48;;;;;;;3.05;2.40;;;14.00;35.60;;;;;;5109760;28;20016;-63
2023/06/11 02:26:14;;;;;;;8.35;2.85;;;14.00;36.20;;;;;;5090981;28;20061;-63
2023/06/11 02:28:39;;;;;;;4.47;2.45;;;14.00;35.60;;;;;;5100950;28;20052;-63
2023/06/11 02:31:05;;;;;;;2.80;2.42;;;14.00;35.00;;;;;;5090498;28;20384;-63
2023/06/11 02:33:30;;;;;;;3.88;2.40;;;13.90;36.90;;;;;;5089232;28;20029;-63
2023/06/11 02:35:56;;;;;;;3.30;2.63;;;13.90;36.70;;;;;;5109985;28;20032;-63
2023/06/11 02:38:21;;;;;;;2.72;2.50;;;13.90;36.90;;;;;;5088713;28;20044;-63
2023/06/11 02:40:47;;;;;;;4.35;2.65;;;13.90;37.10;;;;;;5109689;28;20035;-64
2023/06/11 02:43:12;;;;;;;6.45;2.30;;;13.90;37.60;;;;;;5088531;28;20059;-64
2023/06/11 02:45:38;;;;;;;4.82;2.58;;;13.90;38.40;;;;;;5109995;28;20023;-64
2023/06/11 02:48:03;;;;;;;7.43;2.80;;;13.90;37.40;;;;;;5088913;28;20218;-63
2023/06/11 02:50:29;;;;;;;5.90;2.42;;;13.90;38.40;;;;;;5109705;28;20039;-64
2023/06/11 02:52:54;;;;;;;5.63;2.35;;;13.90;38.50;;;;;;5088758;28;20028;-64
2023/06/11 02:55:20;;;;;;;2.88;2.15;;;13.90;38.50;;;;;;5109666;28;20833;-63
2023/06/11 02:57:45;;;;;;;4.18;2.35;;;13.90;38.30;;;;;;5088412;28;20087;-63
2023/06/11 03:00:11;;;;;;;4.55;2.00;;;13.90;37.50;;;;;;5108178;28;20030;-63
2023/06/11 03:02:37;;;;;;;3.67;2.40;;;13.90;38.10;;;;;;5088586;28;20034;-64
2023/06/11 03:05:02;;;;;;;5.72;2.38;;;13.90;38.50;;;;;;5099319;28;20104;-63
2023/06/11 03:07:28;;;;;;;5.15;2.58;;;13.90;37.90;;;;;;5097901;28;20032;-63
2023/06/11 03:09:54;;;;;;;5.95;2.45;;;13.90;38.70;;;;;;5088162;28;20072;-63
2023/06/11 03:12:20;;;;;;;4.10;2.22;;;13.90;38.70;;;;;;5106931;28;20051;-63
2023/06/11 03:14:45;;;;;;;3.53;2.47;;;14.00;38.60;;;;;;5089118;28;20024;-64
2023/06/11 03:17:11;;;;;;;5.88;2.10;;;14.00;38.00;;;;;;5106980;28;20444;-64
2023/06/11 03:19:36;;;;;;;2.20;1.88;;;14.00;38.80;;;;;;5090165;28;20032;-63
2023/06/11 03:22:02;;;;;;;4.78;2.60;;;14.00;39.00;;;;;;5107269;28;20039;-64
2023/06/11 03:24:28;;;;;;;6.45;2.00;;;14.00;39.10;;;;;;5091870;28;20032;-63
2023/06/11 03:26:53;;;;;;;4.40;2.08;;;14.00;38.30;;;;;;5109971;28;20394;-64
2023/06/11 03:29:19;;;;;;;6.18;2.88;;;14.10;39.00;;;;;;5090357;28;20048;-64
2023/06/11 03:31:44;;;;;;;4.68;2.28;;;14.10;38.80;;;;;;5110289;28;20447;-63
2023/06/11 03:34:10;;;;;;;4.22;2.50;;;14.10;38.90;;;;;;5089399;28;20028;-63
2023/06/11 03:36:36;;;;;;;3.50;2.25;;;14.20;38.40;;;;;;5108362;28;20450;-62
2023/06/11 03:39:02;;;;;;;4.38;2.20;;;14.60;38.00;;;;;;5087667;28;20047;-60
2023/06/11 03:41:28;;;;;;;3.38;1.88;;;15.30;35.90;;;;;;5108215;28;20023;-63
2023/06/11 03:43:53;;;;;;;3.35;2.00;;;15.80;34.00;;;;;;5089616;28;20123;-63
2023/06/11 03:46:21;;;;;;;4.75;2.10;;;16.50;31.50;;;;;;5087634;28;20028;-63
2023/06/11 03:48:46;;;;;;;5.05;2.28;;;16.90;29.90;;;;;;5109028;28;20118;-62
2023/06/11 03:51:12;;;;;;;4.38;1.83;;;17.50;28.90;;;;;;5087977;28;20107;-62
2023/06/11 03:53:38;;;;;;;3.45;2.13;;;17.90;26.70;;;;;;5108548;28;20507;-62
2023/06/11 03:56:03;;;;;;;4.97;2.40;;;18.40;25.80;;;;;;5087733;28;20589;-63
2023/06/11 03:58:29;;;;;;;5.50;1.77;;;18.70;24.80;;;;;;5108508;28;20072;-62
2023/06/11 04:00:54;;;;;;;3.10;2.25;;;19.10;24.20;;;;;;5087709;28;20060;-62
2023/06/11 04:03:20;;;;;;;2.75;1.90;;;19.40;23.00;;;;;;5108517;28;20035;-62
2023/06/11 04:05:45;;;;;;;2.63;2.10;;;19.90;21.60;;;;;;5084453;28;20027;-63
2023/06/11 04:08:11;;;;;;;2.92;2.20;;;20.20;20.50;;;;;;5108642;28;20027;-62
2023/06/11 04:10:36;;;;;;;6.68;2.50;;;20.50;20.20;;;;;;5087662;28;20063;-63
2023/06/11 04:13:02;;;;;;;6.50;2.08;;;20.50;18.90;;;;;;5108604;28;20406;-63
2023/06/11 04:15:27;;;;;;;4.25;2.20;;;20.80;20.30;;;;;;5087549;28;20451;-62
2023/06/11 04:17:53;;;;;;;4.45;2.47;;;21.20;19.70;;;;;;5108412;28;20080;-63
2023/06/11 04:20:18;;;;;;;5.13;2.05;;;21.50;16.60;;;;;;5098121;28;20055;-64
2023/06/11 04:22:44;;;;;;;3.85;1.73;;;21.70;17.70;;;;;;5089116;28;20032;-63
2023/06/11 04:25:11;;;;;;;5.40;1.90;;;22.00;18.20;;;;;;5106262;28;20023;-62
2023/06/11 04:27:37;;;;;;;5.35;2.28;;;22.10;15.40;;;;;;5089020;28;20110;-62
2023/06/11 04:30:03;;;;;;;3.30;2.20;;;22.60;17.00;;;;;;5104828;28;20472;-61
2023/06/11 04:32:34;;;;;;;2.50;1.83;;;22.50;15.70;;;;;;5087581;28;20039;-62
2023/06/11 04:35:03;;;;;;;6.60;2.00;;;22.80;15.40;;;;;;5082710;28;20102;-62
2023/06/11 04:37:30;;;;;;;1.98;1.77;;;23.20;15.10;;;;;;5088476;28;20115;-61
2023/06/11 04:40:05;;;;;;;3.25;1.92;;;23.40;14.90;;;;;;5105063;28;20027;-62
2023/06/11 04:42:30;;;;;;;4.32;2.00;;;23.50;14.00;;;;;;5108948;28;20081;-63
2023/06/11 04:44:56;;;;;;;4.15;2.30;;;24.00;12.40;;;;;;5094624;28;20031;-62
2023/06/11 04:47:22;;;;;;;3.17;1.98;;;23.40;12.20;;;;;;5108870;28;20522;-62
2023/06/11 04:49:52;;;;;;;4.95;2.00;;;23.80;12.20;;;;;;5093680;28;20026;-63
2023/06/11 04:52:17;;;;;;;3.15;1.90;;;23.70;12.10;;;;;;5107421;28;20042;-63
2023/06/11 04:54:44;;;;;;;4.70;2.03;;;23.80;12.50;;;;;;5091903;28;20024;-63
2023/06/11 04:57:10;;;;;;;2.92;1.90;;;24.30;10.80;;;;;;5108760;28;20539;-62
2023/06/11 04:59:36;;;;;;;3.88;2.60;;;24.50;11.60;;;;;;5092025;28;20028;-63
2023/06/11 05:02:01;;;;;;;4.05;2.05;;;24.40;10.20;;;;;;5108802;28;20039;-62
2023/06/11 05:04:27;;;;;;;5.18;2.72;;;24.20;11.30;;;;;;5090869;28;20035;-62
2023/06/11 05:06:54;;;;;;;4.57;2.28;;;23.80;11.40;;;;;;5105140;28;20034;-63
2023/06/11 05:09:20;;;;;;;2.08;1.63;;;23.90;11.20;;;;;;5093065;28;20043;-63
2023/06/11 05:11:45;;;;;;;6.35;2.20;;;24.20;10.90;;;;;;5112450;28;20019;-62
2023/06/11 05:14:12;;;;;;;5.00;2.22;;;24.20;10.90;;;;;;5091760;28;20035;-62
2023/06/11 05:16:38;;;;;;;3.05;2.00;;;24.30;10.70;;;;;;5112431;28;20015;-63
2023/06/11 05:19:05;;;;;;;5.35;1.75;;;24.40;10.90;;;;;;5089334;28;20033;-61
2023/06/11 05:21:31;;;;;;;5.57;2.05;;;25.00;10.00;;;;;;5112297;28;20011;-63
2023/06/11 05:24:06;;;;;;;3.70;2.30;;;24.90;9.50;;;;;;5092098;28;20403;-63
2023/06/11 05:26:35;;;;;;;4.25;2.33;;;24.80;10.20;;;;;;5071614;28;20083;-63
2023/06/11 05:29:01;;;;;;;5.40;2.60;;;25.20;9.00;;;;;;5098924;28;20189;-61
2023/06/11 05:31:29;;;;;;;5.75;2.20;;;26.00;8.50;;;;;;5112336;28;20593;-62
2023/06/11 05:33:55;;;;;;;4.70;2.10;;;25.90;8.60;;;;;;5091987;28;20058;-63
2023/06/11 05:36:21;;;;;;;2.95;1.95;;;26.40;8.50;;;;;;5090157;28;20348;-63
2023/06/11 05:38:47;;;;;;;2.95;1.75;;;27.20;8.20;;;;;;5111146;28;20031;-62
2023/06/11 05:41:13;;;;;;;2.17;1.77;;;28.30;6.40;;;;;;5089934;28;20118;-62
2023/06/11 05:43:38;;;;;;;3.75;2.17;;;28.30;5.00;;;;;;5110992;28;20119;-62
2023/06/11 05:46:04;;;;;;;7.45;2.30;;;28.40;4.50;;;;;;5086560;28;20039;-59
2023/06/11 05:48:30;;;;;;;3.35;2.22;;;27.60;5.60;;;;;;5091476;28;20074;-62
2023/06/11 05:50:55;;;;;;;2.20;2.00;;;28.00;6.20;;;;;;5092905;28;20495;-63
2023/06/11 05:53:21;;;;;;;2.97;1.95;;;28.30;5.10;;;;;;5111744;28;20383;-64
2023/06/11 05:55:46;;;;;;;5.38;2.33;;;28.60;5.30;;;;;;5091906;28;20506;-64
2023/06/11 05:58:12;;;;;;;6.38;2.40;;;28.60;5.30;;;;;;5111325;28;20078;-64
2023/06/11 06:00:37;;;;;;;2.75;2.20;;;29.20;4.10;;;;;;5090780;28;20063;-63
2023/06/11 06:03:04;;;;;;;2.10;1.90;;;29.90;3.90;;;;;;5111521;28;20080;-63
2023/06/11 06:05:29;;;;;;;6.05;2.30;;;30.90;3.80;;;;;;5090441;28;20020;-61
2023/06/11 06:07:55;;;;;;;2.97;1.80;;;30.20;3.50;;;;;;5090793;28;20081;-60
2023/06/11 06:10:21;;;;;;;3.10;2.00;;;30.80;2.20;;;;;;5110576;28;20031;-59
2023/06/11 06:12:46;;;;;;;2.35;2.15;;;29.90;2.20;;;;;;5089764;28;20032;-59
2023/06/11 06:15:12;;;;;;;4.68;2.83;;;29.50;2.60;;;;;;5110627;28;20024;-59
2023/06/11 06:17:37;;;;;;;5.38;2.30;;;29.50;2.50;;;;;;5088344;28;20103;-60
2023/06/11 06:20:04;;;;;;;5.07;2.35;;;29.20;3.40;;;;;;5109947;28;20059;-59
2023/06/11 06:22:29;;;;;;;7.18;2.50;;;29.90;3.30;;;;;;5088993;28;20495;-60
2023/06/11 06:24:55;;;;;;;2.88;2.28;;;30.10;2.60;;;;;;5090549;28;20028;-59
2023/06/11 06:27:20;;;;;;;3.78;2.38;;;30.60;2.20;;;;;;5091520;28;20028;-59
2023/06/11 06:29:46;;;;;;;5.82;2.40;;;30.30;2.00;;;;;;5108666;28;20059;-60
2023/06/11 06:32:11;;;;;;;2.47;1.98;;;30.10;2.30;;;;;;5087567;28;20043;-60
2023/06/11 06:34:37;;;;;;;4.80;2.47;;;29.90;2.20;;;;;;5108629;28;20128;-60
2023/06/11 06:37:02;;;;;;;5.68;2.17;;;30.10;2.40;;;;;;5095595;28;20028;-59
2023/06/11 06:39:28;;;;;;;4.07;2.53;;;30.90;2.10;;;;;;5110136;28;20484;-59
2023/06/11 06:41:54;;;;;;;3.10;1.80;;;31.50;1.30;;;;;;5089079;28;20093;-60
2023/06/11 06:44:20;;;;;;;5.68;2.25;;;32.70;1.20;;;;;;5109748;28;20511;-59
2023/06/11 06:46:46;;;;;;;3.63;2.38;;;32.70;1.00;;;;;;5098223;28;20020;-60
2023/06/11 06:49:11;;;;;;;4.35;2.75;;;32.40;1.00;;;;;;5090592;28;20039;-59
2023/06/11 06:51:37;;;;;;;3.03;1.98;;;33.00;1.00;;;;;;5107886;28;20538;-60
2023/06/11 06:54:03;;;;;;;2.60;2.08;;;33.20;1.00;;;;;;5089347;28;20020;-60
2023/06/11 06:56:28;;;;;;;5.07;1.98;;;33.70;1.00;;;;;;5107675;28;20032;-60
2023/06/11 06:58:54;;;;;;;3.72;2.17;;;34.10;1.00;;;;;;5090235;28;20067;-60
2023/06/11 07:01:20;;;;;;;5.18;2.05;;;34.60;1.00;;;;;;5107626;28;20504;-60
2023/06/11 07:03:45;;;;;;;4.53;2.38;;;35.10;1.00;;;;;;5093607;28;20040;-60
2023/06/11 07:06:10;;;;;;;3.65;2.13;;;35.10;1.00;;;;;;5104354;28;20407;-61
2023/06/11 07:08:38;;;;;;;4.70;2.35;;;34.50;1.00;;;;;;5110217;28;20027;-60
2023/06/11 07:11:03;;;;;;;4.57;2.20;;;34.50;1.00;;;;;;5091271;28;20421;-60
2023/06/11 07:13:29;;;;;;;3.67;2.40;;;35.00;1.00;;;;;;5110151;28;20035;-60
2023/06/11 07:15:54;;;;;;;3.13;2.45;;;35.10;1.00;;;;;;5091778;28;20028;-60
2023/06/11 07:18:21;;;;;;;4.05;2.15;;;35.50;1.00;;;;;;5109932;28;20387;-60
2023/06/11 07:20:47;;;;;;;5.93;2.30;;;35.80;1.00;;;;;;5090725;28;20069;-60
2023/06/11 07:23:12;;;;;;;6.47;2.85;;;35.00;1.00;;;;;;5109594;28;20472;-60
2023/06/11 07:25:38;;;;;;;3.25;2.10;;;33.90;1.00;;;;;;5089492;28;20024;-60
2023/06/11 07:28:05;;;;;;;5.82;2.30;;;34.00;1.00;;;;;;5104471;28;20034;-60
2023/06/11 07:30:32;;;;;;;3.72;2.30;;;33.40;1.00;;;;;;5088330;28;20392;-60
2023/06/11 07:32:58;;;;;;;5.25;2.33;;;33.80;1.00;;;;;;5108722;28;20111;-61
2023/06/11 07:35:25;;;;;;;3.42;2.58;;;34.10;1.00;;;;;;5088472;28;20024;-60
2023/06/11 07:37:51;;;;;;;4.38;1.83;;;34.40;1.00;;;;;;5086325;28;20032;-61
2023/06/11 07:40:17;;;;;;;5.47;2.20;;;35.40;1.00;;;;;;5107404;28;20093;-61
2023/06/11 07:42:43;;;;;;;7.55;2.50;;;36.20;1.00;;;;;;5086911;28;20508;-60
2023/06/11 07:45:09;;;;;;;4.20;2.40;;;36.60;1.00;;;;;;5107647;28;20088;-60
2023/06/11 07:47:35;;;;;;;4.97;2.22;;;35.30;1.00;;;;;;5086946;28;20705;-60
2023/06/11 07:50:03;;;;;;;8.38;2.63;;;36.10;1.00;;;;;;5107906;28;20102;-60
2023/06/11 07:52:28;;;;;;;4.97;2.08;;;37.00;1.00;;;;;;5086229;28;20245;-61
2023/06/11 07:54:54;;;;;;;2.40;2.20;;;36.30;1.00;;;;;;5107807;28;20028;-61
2023/06/11 07:57:19;;;;;;;6.15;2.38;;;36.00;1.00;;;;;;5086821;28;20031;-61
2023/06/11 07:59:45;;;;;;;2.95;2.35;;;36.50;1.00;;;;;;5107761;28;20130;-61
2023/06/11 08:02:11;;;;;;;4.03;2.50;;;35.60;1.00;;;;;;5086662;28;20059;-60
2023/06/11 08:04:37;;;;;;;3.85;2.40;;;35.50;1.00;;;;;;5104600;28;20024;-60
2023/06/11 08:07:04;;;;;;;3.05;2.10;;;35.90;1.00;;;;;;5096489;28;20477;-62
2023/06/11 08:09:30;;;;;;;4.38;2.33;;;36.00;1.00;;;;;;5086685;28;20571;-61
2023/06/11 08:11:56;;;;;;;4.97;2.63;;;36.50;1.00;;;;;;5093508;28;20553;-61
2023/06/11 08:14:21;;;;;;;5.72;2.88;;;36.30;1.00;;;;;;5096050;28;20287;-61
2023/06/11 08:16:47;;;;;;;6.30;3.10;;;35.60;1.00;;;;;;5086581;28;20027;-61
2023/06/11 08:19:13;;;;;;;3.33;2.70;;;34.40;1.00;;;;;;5090567;28;20048;-61
2023/06/11 08:21:39;;;;;;;10.60;2.70;;;33.60;1.00;;;;;;5108354;28;20522;-61
2023/06/11 08:24:06;;;;;;;2.92;2.60;;;33.60;1.00;;;;;;5090423;28;20038;-62
2023/06/11 08:26:32;;;;;;;2.97;2.33;;;33.60;1.00;;;;;;5107949;28;20499;-61
2023/06/11 08:28:57;;;;;;;3.45;2.33;;;34.20;1.00;;;;;;5095163;28;20047;-60
2023/06/11 08:31:24;;;;;;;7.10;2.83;;;33.70;1.00;;;;;;5087431;28;20024;-61
2023/06/11 08:33:50;;;;;;;7.80;3.30;;;32.60;1.00;;;;;;5105255;28;20034;-62
2023/06/11 08:36:16;;;;;;;6.28;2.90;;;32.10;1.00;;;;;;5107847;28;20032;-61
2023/06/11 08:38:41;;;;;;;5.63;2.83;;;32.30;1.00;;;;;;5086986;28;20032;-61
2023/06/11 08:41:07;;;;;;;4.88;3.20;;;32.30;1.00;;;;;;5111108;28;20019;-61
2023/06/11 08:43:33;;;;;;;4.13;2.90;;;32.10;1.00;;;;;;5091840;28;20031;-61
2023/06/11 08:45:58;;;;;;;3.08;2.60;;;32.30;1.00;;;;;;5109894;28;20038;-61
2023/06/11 08:48:28;;;;;;;4.50;2.83;;;32.30;1.00;;;;;;5092022;28;20032;-61
2023/06/11 08:50:54;;;;;;;3.92;2.83;;;31.70;1.00;;;;;;5088710;28;20024;-61
2023/06/11 08:53:20;;;;;;;3.55;2.50;;;31.80;1.00;;;;;;5090981;28;20036;-61
2023/06/11 08:55:46;;;;;;;3.65;2.60;;;31.80;1.20;;;;;;5090561;28;20034;-60
2023/06/11 08:58:13;;;;;;;3.75;3.40;;;31.80;1.10;;;;;;5108403;28;20054;-61
2023/06/11 09:00:38;;;;;;;6.38;3.13;;;31.40;1.10;;;;;;5089447;28;20016;-60
2023/06/11 09:03:04;;;;;;;4.25;2.67;;;31.10;2.00;;;;;;5110833;28;20042;-61
2023/06/11 09:05:32;;;;;;;6.88;3.20;;;31.20;2.10;;;;;;5096233;28;20062;-61
2023/06/11 09:07:58;;;;;;;4.75;3.45;;;30.70;2.70;;;;;;5089915;28;20110;-61
2023/06/11 09:10:23;;;;;;;6.78;3.55;;;29.80;3.00;;;;;;5093476;28;20046;-61
2023/06/11 09:12:49;;;;;;;6.38;3.38;;;29.20;4.00;;;;;;5098398;28;20114;-60
2023/06/11 09:15:16;;;;;;;4.85;3.80;;;29.00;4.40;;;;;;5088989;28;20392;-60
2023/06/11 09:17:46;;;;;;;3.92;3.15;;;28.80;4.90;;;;;;5099957;28;20024;-61
2023/06/11 09:20:13;;;;;;;7.75;3.58;;;28.90;4.80;;;;;;5088352;28;20033;-61
2023/06/11 09:22:42;;;;;;;3.88;3.47;;;29.00;5.30;;;;;;5104575;28;20326;-61
2023/06/11 09:25:10;;;;;;;5.47;3.33;;;28.90;5.10;;;;;;5088120;28;20107;-60
2023/06/11 09:27:39;;;;;;;3.60;3.10;;;29.10;4.80;;;;;;5110524;28;20031;-61
2023/06/11 09:30:08;;;;;;;4.38;3.20;;;29.00;5.40;;;;;;5087426;28;20106;-60
2023/06/11 09:32:40;;;;;;;4.75;3.40;;;29.00;5.40;;;;;;5105939;28;20085;-61
2023/06/11 09:35:07;;;;;;;6.40;3.42;;;28.90;5.40;;;;;;5081098;28;20296;-60
2023/06/11 09:37:50;;;;;;;6.50;4.07;;;28.60;6.00;;;;;;5109898;28;20032;-60
2023/06/11 09:40:18;;;;;;;5.57;3.92;;;28.20;6.60;;;;;;5088048;28;20545;-60
2023/06/11 09:42:46;;;;;;;4.10;3.60;;;28.00;6.70;;;;;;5109915;28;20032;-60
2023/06/11 09:45:17;;;;;;;4.70;3.95;;;28.20;6.60;;;;;;5088514;28;20067;-60
2023/06/11 09:47:47;;;;;;;4.75;4.20;;;27.60;7.30;;;;;;5070077;28;20041;-60
2023/06/11 09:50:16;;;;;;;5.55;4.07;;;27.60;7.80;;;;;;5094383;28;20545;-60
2023/06/11 09:52:42;;;;;;;4.38;3.88;;;27.50;7.50;;;;;;5109700;28;20502;-60
2023/06/11 09:55:10;;;;;;;6.57;4.40;;;27.70;7.50;;;;;;5081286;28;20479;-60
2023/06/11 09:57:37;;;;;;;5.53;3.80;;;27.80;7.70;;;;;;5078553;28;20028;-60
2023/06/11 10:00:06;;;;;;;4.78;4.28;;;27.80;8.10;;;;;;5090788;28;20036;-60
2023/06/11 10:02:32;;;;;;;6.50;4.30;;;27.90;6.80;;;;;;5107333;28;20054;-60
2023/06/11 10:04:57;;;;;;;7.53;4.20;;;27.90;7.60;;;;;;5087838;28;20487;-60
2023/06/11 10:07:24;;;;;;;5.22;4.38;;;27.80;6.90;;;;;;5083041;28;20025;-59
2023/06/11 10:09:53;;;;;;;4.97;3.85;;;27.80;8.10;;;;;;5104769;28;20035;-60
2023/06/11 10:12:21;;;;;;;7.05;3.80;;;27.70;7.60;;;;;;5081977;28;20097;-60
2023/06/11 10:14:53;;;;;;;7.18;4.25;;;27.70;7.20;;;;;;5097836;28;20031;-61
2023/06/11 10:17:21;;;;;;;7.50;4.93;;;27.80;8.60;;;;;;5089352;28;20461;-60
2023/06/11 10:19:51;;;;;;;7.35;4.65;;;27.60;8.90;;;;;;5088235;28;20078;-60
2023/06/11 10:22:32;;;;;;;6.90;5.63;;;27.40;8.70;;;;;;5104895;28;20632;-60
2023/06/11 10:25:00;;;;;;;10.40;4.95;;;26.90;9.90;;;;;;5085900;28;20028;-60
2023/06/11 10:27:35;;;;;;;7.70;4.63;;;26.70;10.10;;;;;;5086631;28;20027;-60
2023/06/11 10:30:00;;;;;;;7.55;5.50;;;26.70;10.90;;;;;;5069037;28;20041;-60
2023/06/11 10:32:26;;;;;;;5.57;4.50;;;26.90;11.00;;;;;;5091310;28;20074;-60
2023/06/11 10:35:00;;;;;;;5.82;5.15;;;26.90;10.50;;;;;;5106676;28;20530;-60
2023/06/11 10:37:28;;;;;;;8.35;4.95;;;27.10;11.60;;;;;;5072485;28;20111;-59
2023/06/11 10:39:54;;;;;;;5.60;4.30;;;26.90;11.50;;;;;;5072799;28;20029;-61
2023/06/11 10:42:40;;;;;;;4.70;4.28;;;26.70;11.20;;;;;;5069963;28;20108;-60
2023/06/11 10:45:08;;;;;;;5.32;4.72;;;27.00;12.20;;;;;;5071997;28;20021;-59
2023/06/11 10:47:44;;;;;;;6.50;5.57;;;26.90;11.20;;;;;;5088815;28;20391;-59
2023/06/11 10:50:12;;;;;;;5.57;4.90;;;26.80;11.40;;;;;;5084524;28;20089;-59
2023/06/11 10:52:55;;;;;;;6.88;4.93;;;26.70;11.90;;;;;;5084935;28;20972;-60
2023/06/11 10:55:22;;;;;;;7.93;5.15;;;27.00;12.40;;;;;;5070380;28;20089;-59
2023/06/11 10:57:54;;;;;;;9.27;5.00;;;27.00;12.90;;;;;;5068080;28;20428;-59
2023/06/11 11:00:20;;;;;;;8.75;5.93;;;27.00;12.20;;;;;;5108069;28;20111;-59
2023/06/11 11:02:46;;;;;;;7.55;4.90;;;26.80;11.60;;;;;;5086961;28;20028;-60
2023/06/11 11:05:12;;;;;;;6.95;5.60;;;26.90;12.00;;;;;;5098959;28;20119;-60
2023/06/11 11:07:38;;;;;;;9.55;5.10;;;26.80;12.40;;;;;;5100237;28;20578;-59
2023/06/11 11:10:05;;;;;;;9.63;5.82;;;26.80;12.10;;;;;;5089147;28;20554;-60
2023/06/11 11:12:41;;;;;;;9.82;7.05;;;26.70;12.60;;;;;;5092788;28;20447;-59
2023/06/11 11:15:07;;;;;;;7.00;5.30;;;26.40;13.20;;;;;;5108856;28;20084;-58
2023/06/11 11:17:34;;;;;;;8.48;6.20;;;26.40;13.40;;;;;;5087210;27;20549;-58
2023/06/11 11:19:59;;;;;;;8.98;6.18;;;26.60;14.00;;;;;;5086122;28;20676;-59
2023/06/11 11:22:30;;;;;;;7.70;6.20;;;26.60;13.40;;;;;;5081452;28;20039;-59
2023/06/11 11:25:00;;;;;;;6.70;5.95;;;26.40;14.70;;;;;;5095425;28;20527;-59
2023/06/11 11:27:26;;;;;;;12.85;6.32;;;26.10;15.10;;;;;;5078614;28;20154;-59
2023/06/11 11:29:54;;;;;;;10.43;6.35;;;26.00;14.80;;;;;;5089686;28;20446;-60
2023/06/11 11:32:20;;;;;;;12.43;6.22;;;25.90;15.30;;;;;;5093744;28;20707;-59
2023/06/11 11:34:46;;;;;;;10.20;6.18;;;25.80;15.60;;;;;;5087276;28;20445;-59
2023/06/11 11:37:12;;;;;;;9.95;5.82;;;25.70;14.30;;;;;;5093701;28;20036;-60
2023/06/11 11:39:37;;;;;;;7.30;6.07;;;25.80;14.10;;;;;;5088628;28;20032;-59
2023/06/11 11:42:07;;;;;;;7.60;6.55;;;25.90;15.20;;;;;;5092949;28;20674;-58
2023/06/11 11:44:39;;;;;;;6.60;5.65;;;26.00;15.20;;;;;;5100002;28;20031;-59
2023/06/11 11:47:11;;;;;;;10.35;5.90;;;25.90;14.40;;;;;;5074263;28;20036;-57
2023/06/11 11:49:37;;;;;;;8.15;5.22;;;25.70;14.10;;;;;;5083749;28;20016;-60
2023/06/11 11:52:07;;;;;;;8.80;5.97;;;25.80;14.10;;;;;;5094078;28;20031;-59
2023/06/11 11:54:41;;;;;;;6.38;5.60;;;26.00;14.20;;;;;;5092676;28;20024;-60
2023/06/11 11:57:07;;;;;;;6.90;5.32;;;26.10;14.30;;;;;;5071673;28;20032;-59
2023/06/11 11:59:40;;;;;;;9.40;6.15;;;26.10;13.00;;;;;;5069600;28;20029;-60
2023/06/11 12:02:07;;;;;;;8.13;5.63;;;26.10;12.70;;;;;;5078341;28;20028;-59
2023/06/11 12:04:40;;;;;;;6.40;5.13;;;26.00;12.50;;;;;;5094691;28;20033;-60
2023/06/11 12:07:17;;;;;;;7.38;5.07;;;26.10;13.40;;;;;;5077748;28;20036;-59
2023/06/11 12:09:42;;;;;;;8.13;5.18;;;26.10;13.70;;;;;;5080977;28;20021;-62
2023/06/11 12:12:09;;;;;;;13.23;5.72;;;26.10;14.00;;;;;;5089656;28;20039;-54
2023/06/11 12:14:34;;;;;;;7.82;5.40;;;26.00;12.60;;;;;;5099150;28;20031;-53
2023/06/11 12:17:00;;;;;;;6.43;4.50;;;25.90;12.90;;;;;;5086425;28;20025;-53
2023/06/11 12:19:28;;;;;;;8.40;4.97;;;26.10;12.20;;;;;;5073835;28;20067;-54
2023/06/11 12:21:55;;;;;;;7.10;5.80;;;26.20;12.00;;;;;;5098007;28;20017;-51
2023/06/11 12:24:24;;;;;;;9.95;6.68;;;26.50;11.50;;;;;;5062387;28;20492;-52
2023/06/11 12:26:50;;;;;;;7.75;5.53;;;26.40;11.40;;;;;;5079191;28;20103;-55
2023/06/11 12:29:17;;;;;;;6.28;5.43;;;26.40;10.90;;;;;;5070852;28;20109;-54
2023/06/11 12:31:42;;;;;;;7.18;5.70;;;26.40;10.50;;;;;;5102672;28;20039;-53
2023/06/11 12:34:14;;;;;;;10.27;5.85;;;26.60;11.20;;;;;;5076910;28;20043;-53
2023/06/11 12:36:40;;;;;;;9.45;6.15;;;26.60;10.40;;;;;;5085423;28;20195;-55
2023/06/11 12:39:06;;;;;;;7.45;5.15;;;26.60;10.40;;;;;;5072925;28;20529;-54
2023/06/11 12:41:31;;;;;;;8.48;6.05;;;26.80;10.60;;;;;;5074789;28;20103;-51
2023/06/11 12:43:57;;;;;;;8.73;6.30;;;26.80;11.00;;;;;;5071162;28;20067;-51
2023/06/11 12:46:23;;;;;;;7.53;5.43;;;26.60;11.50;;;;;;5089056;28;20066;-54
2023/06/11 12:48:48;;;;;;;8.02;5.78;;;26.70;11.30;;;;;;5090406;28;20040;-54